createdAt,value
2022-10-23T00:00:14.892Z,98.83
2022-10-23T00:02:18.022Z,98.71
2022-10-23T00:04:23.227Z,97.89
2022-10-23T00:06:26.894Z,98.07
2022-10-23T00:08:29.853Z,98.27
2022-10-23T00:10:33.361Z,97.58
2022-10-23T00:12:39.253Z,98.81
2022-10-23T00:14:42.351Z,97.42
2022-10-23T00:16:45.432Z,97.61
2022-10-23T00:18:48.459Z,97.34
2022-10-23T00:20:51.490Z,96.99
2022-10-23T00:22:54.527Z,96.92
2022-10-23T00:24:57.680Z,97.63
2022-10-23T00:27:00.703Z,96.98
2022-10-23T00:29:05.402Z,97.81
2022-10-23T00:31:08.493Z,97.10
2022-10-23T00:33:11.877Z,98.05
2022-10-23T00:35:15.810Z,98.21
2022-10-23T00:37:18.979Z,98.01
2022-10-23T00:39:21.929Z,98.54
2022-10-23T00:41:28.459Z,98.39
2022-10-23T00:43:32.611Z,98.35
2022-10-23T00:45:36.981Z,96.94
2022-10-23T00:47:40.963Z,97.69
2022-10-23T00:49:44.084Z,97.33
2022-10-23T00:51:50.841Z,98.17
2022-10-23T00:54:06.647Z,98.13
2022-10-23T00:56:15.906Z,96.88
2022-10-23T00:58:20.524Z,97.96
2022-10-23T01:00:26.323Z,98.51
2022-10-23T01:02:30.873Z,97.66
2022-10-23T01:04:34.512Z,98.53
2022-10-23T01:06:39.555Z,98.19
2022-10-23T01:08:49.951Z,97.25
2022-10-23T01:10:56.532Z,98.40
2022-10-23T01:13:07.618Z,98.42
2022-10-23T01:15:23.049Z,99.22
2022-10-23T01:17:32.011Z,98.82
2022-10-23T01:19:48.111Z,98.77
2022-10-23T01:21:56.379Z,98.31
2022-10-23T01:24:22.833Z,97.79
2022-10-23T01:26:34.977Z,97.42
2022-10-23T01:28:44.880Z,98.05
2022-10-23T01:30:49.786Z,97.81
2022-10-23T01:32:56.041Z,98.14
2022-10-23T01:35:04.611Z,98.28
2022-10-23T01:37:09.968Z,98.24
2022-10-23T01:39:16.695Z,97.45
2022-10-23T01:41:24.169Z,98.74
2022-10-23T01:43:31.293Z,97.40
2022-10-23T01:45:40.382Z,97.67
2022-10-23T01:47:46.331Z,98.96
2022-10-23T01:49:53.201Z,98.70
2022-10-23T01:51:59.236Z,98.14
2022-10-23T01:54:03.869Z,97.71
2022-10-23T01:56:10.669Z,97.65
2022-10-23T01:58:16.606Z,98.92
2022-10-23T02:00:21.138Z,98.00
2022-10-23T02:02:29.338Z,98.30
2022-10-23T02:04:35.780Z,98.68
2022-10-23T02:06:39.449Z,99.06
2022-10-23T02:08:43.351Z,98.80
2022-10-23T02:10:51.288Z,98.70
2022-10-23T02:12:58.974Z,99.70
2022-10-23T02:15:07.973Z,98.32
2022-10-23T02:17:17.114Z,97.96
2022-10-23T02:19:26.444Z,97.43
2022-10-23T02:21:44.291Z,98.14
2022-10-23T02:23:53.785Z,98.67
2022-10-23T02:26:10.788Z,98.43
2022-10-23T02:28:17.935Z,99.25
2022-10-23T02:30:22.942Z,98.91
2022-10-23T02:32:36.315Z,98.68
2022-10-23T02:34:42.220Z,98.34
2022-10-23T02:36:47.670Z,98.28
2022-10-23T02:38:51.440Z,99.22
2022-10-23T02:40:56.126Z,99.29
2022-10-23T02:43:03.529Z,99.40
2022-10-23T02:45:10.979Z,98.39
2022-10-23T02:47:25.676Z,99.19
2022-10-23T02:49:37.280Z,99.63
2022-10-23T02:51:55.945Z,99.85
2022-10-23T02:54:04.972Z,100.00
2022-10-23T02:56:13.757Z,98.13
2022-10-23T02:58:22.792Z,99.19
2022-10-23T03:00:31.179Z,98.94
2022-10-23T03:02:38.836Z,99.06
2022-10-23T03:04:44.123Z,99.10
2022-10-23T03:06:48.881Z,98.97
2022-10-23T03:08:55.697Z,98.91
2022-10-23T03:11:01.194Z,99.13
2022-10-23T03:13:05.140Z,98.58
2022-10-23T03:15:17.354Z,99.10
2022-10-23T03:17:21.202Z,99.16
2022-10-23T03:19:24.346Z,99.17
2022-10-23T03:21:27.409Z,99.17
2022-10-23T03:23:31.826Z,99.81
2022-10-23T03:25:35.727Z,99.35
2022-10-23T03:27:38.984Z,98.84
2022-10-23T03:29:45.100Z,99.45
2022-10-23T03:31:50.505Z,100.00
2022-10-23T03:33:53.527Z,99.75
2022-10-23T03:35:57.776Z,99.72
2022-10-23T03:38:00.951Z,99.59
2022-10-23T03:40:06.244Z,100.00
2022-10-23T03:42:11.114Z,99.61
2022-10-23T03:44:14.167Z,100.00
2022-10-23T03:46:20.136Z,99.46
2022-10-23T03:48:27.021Z,100.00
2022-10-23T03:50:34.429Z,99.47
2022-10-23T03:52:37.656Z,100.00
2022-10-23T03:54:40.633Z,99.66
2022-10-23T03:56:45.113Z,100.00
2022-10-23T03:58:48.266Z,100.00
2022-10-23T04:00:51.320Z,98.57
2022-10-23T04:02:54.284Z,98.79
2022-10-23T04:04:57.519Z,98.32
2022-10-23T04:07:00.522Z,98.74
2022-10-23T04:09:05.045Z,99.60
2022-10-23T04:11:08.391Z,99.85
2022-10-23T04:13:20.635Z,98.78
2022-10-23T04:15:23.615Z,99.67
2022-10-23T04:19:29.720Z,100.00
2022-10-23T04:21:32.995Z,98.48
2022-10-23T04:23:37.358Z,99.41
2022-10-23T04:25:42.086Z,98.95
2022-10-23T04:27:45.347Z,99.10
2022-10-23T04:29:50.101Z,98.40
2022-10-23T04:31:53.158Z,98.90
2022-10-23T04:33:56.524Z,98.10
2022-10-23T04:36:07.945Z,99.14
2022-10-23T04:38:11.061Z,100.00
2022-10-23T04:40:14.289Z,99.53
2022-10-23T04:42:17.370Z,99.78
2022-10-23T04:44:20.466Z,98.29
2022-10-23T04:46:24.936Z,100.00
2022-10-23T04:48:29.209Z,99.41
2022-10-23T04:50:58.455Z,98.22
2022-10-23T04:53:16.022Z,100.00
2022-10-23T04:55:36.865Z,98.17
2022-10-23T04:57:49.268Z,98.23
2022-10-23T04:59:56.265Z,98.49
2022-10-23T05:02:01.440Z,100.00
2022-10-23T05:04:05.059Z,99.72
2022-10-23T05:06:12.634Z,98.58
2022-10-23T05:08:24.511Z,99.53
2022-10-23T05:10:42.566Z,100.00
2022-10-23T05:12:48.523Z,100.00
2022-10-23T05:14:51.700Z,100.00
2022-10-23T05:16:58.093Z,100.00
2022-10-23T05:19:02.610Z,100.00
2022-10-23T05:21:09.558Z,99.74
2022-10-23T05:23:17.819Z,100.00
2022-10-23T05:25:31.275Z,99.33
2022-10-23T05:27:45.807Z,100.00
2022-10-23T05:29:50.645Z,100.00
2022-10-23T05:32:01.567Z,100.00
2022-10-23T05:34:11.165Z,100.00
2022-10-23T05:36:19.881Z,100.00
2022-10-23T05:38:23.646Z,100.00
2022-10-23T05:40:27.057Z,98.87
2022-10-23T05:42:40.831Z,100.00
2022-10-23T05:44:44.745Z,99.89
2022-10-23T05:47:18.729Z,100.00
2022-10-23T05:49:41.844Z,100.00
2022-10-23T05:52:03.489Z,100.00
2022-10-23T05:54:18.106Z,100.00
2022-10-23T05:56:41.752Z,100.00
2022-10-23T05:58:59.036Z,100.00
2022-10-23T06:01:08.299Z,100.00
2022-10-23T06:03:28.154Z,99.85
2022-10-23T06:05:32.722Z,100.00
2022-10-23T06:08:11.096Z,100.00
2022-10-23T06:10:14.719Z,99.53
2022-10-23T06:12:21.436Z,100.00
2022-10-23T06:14:26.494Z,100.00
2022-10-23T06:16:30.741Z,100.00
2022-10-23T06:18:34.002Z,99.78
2022-10-23T06:20:44.306Z,100.00
2022-10-23T06:22:57.906Z,100.00
2022-10-23T06:25:20.249Z,100.00
2022-10-23T06:27:23.727Z,100.00
2022-10-23T06:29:27.200Z,100.00
2022-10-23T06:31:30.250Z,100.00
2022-10-23T06:33:34.257Z,99.95
2022-10-23T06:35:39.287Z,100.00
2022-10-23T06:37:43.719Z,100.00
2022-10-23T06:39:53.567Z,100.00
2022-10-23T06:42:12.037Z,100.00
2022-10-23T06:44:44.495Z,100.00
2022-10-23T06:46:48.381Z,100.00
2022-10-23T06:49:15.885Z,100.00
2022-10-23T06:51:24.072Z,100.00
2022-10-23T06:53:28.675Z,100.00
2022-10-23T06:55:41.942Z,100.00
2022-10-23T06:57:46.381Z,100.00
2022-10-23T06:59:49.734Z,100.00
2022-10-23T07:03:58.880Z,100.00
2022-10-23T07:06:03.153Z,100.00
2022-10-23T07:08:07.182Z,100.00
2022-10-23T07:10:17.709Z,100.00
2022-10-23T07:12:24.028Z,100.00
2022-10-23T07:14:38.925Z,100.00
2022-10-23T07:16:42.741Z,100.00
2022-10-23T07:18:47.535Z,100.00
2022-10-23T07:21:17.290Z,100.00
2022-10-23T07:23:21.066Z,100.00
2022-10-23T07:25:26.943Z,100.00
2022-10-23T07:27:30.240Z,100.00
2022-10-23T07:29:37.389Z,100.00
2022-10-23T07:31:41.039Z,100.00
2022-10-23T07:34:02.602Z,100.00
2022-10-23T07:36:06.970Z,100.00
2022-10-23T07:38:10.120Z,100.00
2022-10-23T07:40:18.773Z,100.00
2022-10-23T07:42:23.231Z,100.00
2022-10-23T07:44:27.749Z,100.00
2022-10-23T07:46:31.967Z,100.00
2022-10-23T07:48:35.158Z,100.00
2022-10-23T07:50:39.350Z,100.00
2022-10-23T07:52:42.647Z,100.00
2022-10-23T07:54:48.229Z,100.00
2022-10-23T07:56:58.015Z,100.00
2022-10-23T07:59:18.622Z,100.00
2022-10-23T08:01:32.899Z,100.00
2022-10-23T08:03:36.344Z,100.00
2022-10-23T08:05:40.989Z,100.00
2022-10-23T08:07:45.391Z,99.85
2022-10-23T08:09:48.536Z,100.00
2022-10-23T08:11:51.612Z,100.00
2022-10-23T08:13:57.174Z,100.00
2022-10-23T08:16:04.364Z,99.61
2022-10-23T08:18:26.347Z,98.05
2022-10-23T08:20:29.838Z,98.58
2022-10-23T08:22:35.096Z,99.34
2022-10-23T08:24:38.750Z,99.04
2022-10-23T08:26:42.094Z,100.00
2022-10-23T08:28:46.089Z,98.20
2022-10-23T08:30:49.462Z,99.82
2022-10-23T08:32:55.156Z,99.56
2022-10-23T08:34:58.397Z,98.14
2022-10-23T08:37:03.728Z,98.89
2022-10-23T08:39:10.771Z,98.91
2022-10-23T08:41:25.899Z,96.84
2022-10-23T08:43:37.105Z,97.43
2022-10-23T08:45:57.952Z,97.40
2022-10-23T08:48:32.353Z,97.32
2022-10-23T08:50:57.481Z,97.14
2022-10-23T08:53:04.134Z,95.83
2022-10-23T08:55:16.603Z,96.13
2022-10-23T08:57:23.468Z,96.45
2022-10-23T08:59:29.063Z,96.08
2022-10-23T09:01:37.779Z,97.08
2022-10-23T09:03:44.435Z,97.01
2022-10-23T09:05:57.954Z,96.49
2022-10-23T09:08:16.001Z,97.70
2022-10-23T09:10:30.750Z,94.97
2022-10-23T09:12:33.828Z,96.56
2022-10-23T09:14:47.900Z,96.04
2022-10-23T09:17:00.987Z,95.56
2022-10-23T09:19:12.952Z,94.57
2022-10-23T09:21:16.118Z,95.54
2022-10-23T09:23:22.557Z,95.61
2022-10-23T09:25:28.024Z,97.02
2022-10-23T09:27:31.160Z,96.65
2022-10-23T09:29:36.028Z,95.27
2022-10-23T09:31:49.771Z,94.52
2022-10-23T09:33:57.950Z,94.24
2022-10-23T09:36:04.470Z,94.42
2022-10-23T09:38:26.664Z,92.47
2022-10-23T09:40:34.603Z,91.17
2022-10-23T09:42:38.485Z,91.05
2022-10-23T09:44:49.218Z,91.95
2022-10-23T09:46:54.157Z,90.39
2022-10-23T09:49:00.955Z,90.48
2022-10-23T09:51:18.063Z,88.62
2022-10-23T09:53:28.181Z,88.75
2022-10-23T09:55:31.440Z,89.84
2022-10-23T09:57:39.099Z,88.47
2022-10-23T09:59:43.310Z,88.76
2022-10-23T10:01:53.930Z,89.63
2022-10-23T10:04:34.753Z,86.74
2022-10-23T10:06:42.714Z,86.75
2022-10-23T10:08:51.586Z,87.35
2022-10-23T10:10:59.042Z,87.34
2022-10-23T10:13:14.280Z,80.66
2022-10-23T10:15:24.920Z,83.13
2022-10-23T10:17:49.862Z,84.59
2022-10-23T10:20:16.694Z,82.97
2022-10-23T10:22:29.550Z,83.42
2022-10-23T10:24:40.558Z,82.00
2022-10-23T10:26:51.088Z,81.46
2022-10-23T10:29:03.336Z,82.92
2022-10-23T10:31:12.136Z,82.31
2022-10-23T10:33:19.561Z,83.32
2022-10-23T10:35:38.609Z,83.08
2022-10-23T10:37:55.827Z,80.45
2022-10-23T10:40:03.063Z,80.71
2022-10-23T10:42:28.757Z,80.22
2022-10-23T10:44:46.124Z,80.14
2022-10-23T10:46:54.232Z,80.19
2022-10-23T10:49:01.723Z,79.03
2022-10-23T10:51:18.415Z,78.72
2022-10-23T10:53:29.882Z,77.60
2022-10-23T10:55:35.705Z,78.66
2022-10-23T10:57:42.420Z,77.41
2022-10-23T10:59:47.489Z,77.51
2022-10-23T11:01:54.818Z,77.01
2022-10-23T11:04:03.194Z,77.47
2022-10-23T11:06:07.836Z,76.47
2022-10-23T11:08:16.374Z,76.64
2022-10-23T11:10:21.469Z,76.37
2022-10-23T11:12:26.488Z,76.16
2022-10-23T11:14:32.972Z,76.23
2022-10-23T11:16:38.518Z,77.17
2022-10-23T11:18:43.568Z,77.16
2022-10-23T11:20:55.246Z,76.34
2022-10-23T11:23:03.397Z,75.33
2022-10-23T11:25:19.086Z,76.03
2022-10-23T11:27:37.847Z,75.87
2022-10-23T11:30:00.885Z,76.41
2022-10-23T11:32:15.710Z,76.54
2022-10-23T11:34:44.976Z,77.56
2022-10-23T11:36:51.045Z,78.23
2022-10-23T11:39:08.432Z,78.23
2022-10-23T11:41:22.446Z,77.66
2022-10-23T11:43:33.456Z,77.66
2022-10-23T11:45:38.882Z,77.47
2022-10-23T11:47:44.203Z,74.71
2022-10-23T11:49:48.258Z,74.85
2022-10-23T11:52:01.818Z,75.59
2022-10-23T11:54:22.470Z,75.71
2022-10-23T11:56:31.208Z,72.98
2022-10-23T11:58:48.200Z,71.79
2022-10-23T12:00:55.788Z,72.10
2022-10-23T12:02:59.433Z,73.38
2022-10-23T12:05:05.484Z,73.49
2022-10-23T12:07:18.003Z,74.11
2022-10-23T12:09:28.067Z,73.25
2022-10-23T12:11:43.214Z,73.77
2022-10-23T12:13:47.811Z,73.72
2022-10-23T12:15:57.154Z,75.21
2022-10-23T12:18:10.291Z,74.78
2022-10-23T12:20:27.346Z,75.94
2022-10-23T12:22:39.405Z,77.08
2022-10-23T12:24:52.610Z,76.21
2022-10-23T12:27:15.675Z,75.60
2022-10-23T12:29:29.575Z,75.61
2022-10-23T12:31:43.100Z,75.89
2022-10-23T12:33:54.710Z,75.33
2022-10-23T12:36:29.970Z,75.48
2022-10-23T12:38:35.563Z,76.05
2022-10-23T12:40:39.598Z,77.59
2022-10-23T12:42:43.137Z,78.24
2022-10-23T12:44:47.683Z,78.77
2022-10-23T12:46:53.133Z,79.43
2022-10-23T12:48:57.933Z,81.28
2022-10-23T12:51:01.102Z,81.29
2022-10-23T12:53:05.936Z,81.35
2022-10-23T12:55:15.071Z,82.66
2022-10-23T12:57:21.996Z,83.18
2022-10-23T12:59:27.299Z,79.93
2022-10-23T13:01:33.601Z,79.20
2022-10-23T13:03:37.296Z,79.40
2022-10-23T13:05:40.430Z,77.12
2022-10-23T13:07:45.587Z,76.73
2022-10-23T13:09:50.537Z,76.56
2022-10-23T13:12:02.190Z,76.16
2022-10-23T13:14:12.475Z,76.76
2022-10-23T13:16:16.396Z,76.03
2022-10-23T13:18:21.035Z,75.23
2022-10-23T13:20:27.512Z,76.12
2022-10-23T13:22:30.590Z,76.22
2022-10-23T13:24:33.765Z,76.05
2022-10-23T13:26:42.815Z,75.20
2022-10-23T13:28:46.381Z,75.56
2022-10-23T13:31:04.615Z,74.77
2022-10-23T13:33:15.643Z,74.71
2022-10-23T13:35:24.066Z,74.26
2022-10-23T13:37:28.616Z,73.89
2022-10-23T13:39:33.110Z,73.21
2022-10-23T13:41:39.507Z,74.24
2022-10-23T13:43:43.294Z,74.70
2022-10-23T13:45:46.371Z,75.98
2022-10-23T13:47:49.614Z,76.20
2022-10-23T13:49:52.748Z,76.24
2022-10-23T13:51:59.238Z,77.65
2022-10-23T13:54:02.419Z,78.12
2022-10-23T13:56:05.695Z,78.04
2022-10-23T13:58:11.755Z,79.35
2022-10-23T14:00:16.136Z,79.46
2022-10-23T14:02:21.374Z,79.12
2022-10-23T14:04:24.698Z,78.39
2022-10-23T14:06:27.681Z,79.00
2022-10-23T14:08:32.130Z,78.43
2022-10-23T14:10:35.114Z,77.59
2022-10-23T14:12:41.647Z,76.19
2022-10-23T14:14:44.796Z,76.26
2022-10-23T14:16:48.111Z,76.84
2022-10-23T14:18:51.291Z,77.73
2022-10-23T14:20:54.365Z,77.76
2022-10-23T14:22:57.819Z,78.24
2022-10-23T14:25:02.285Z,78.76
2022-10-23T14:27:05.640Z,79.81
2022-10-23T14:29:18.421Z,79.99
2022-10-23T14:31:24.598Z,81.26
2022-10-23T14:33:27.771Z,81.67
2022-10-23T14:35:31.015Z,83.14
2022-10-23T14:37:35.398Z,83.14
2022-10-23T14:39:38.792Z,83.58
2022-10-23T14:41:43.261Z,83.60
2022-10-23T14:43:46.428Z,83.79
2022-10-23T14:45:49.837Z,83.75
2022-10-23T14:47:52.844Z,85.15
2022-10-23T14:49:56.182Z,85.95
2022-10-23T14:51:59.197Z,86.66
2022-10-23T14:54:03.980Z,86.94
2022-10-23T14:56:07.615Z,86.46
2022-10-23T14:58:12.015Z,87.14
2022-10-23T15:00:16.270Z,87.34
2022-10-23T15:02:19.332Z,86.62
2022-10-23T15:04:22.909Z,86.42
2022-10-23T15:06:26.553Z,86.08
2022-10-23T15:08:29.717Z,86.55
2022-10-23T15:10:32.744Z,86.42
2022-10-23T15:12:36.226Z,87.04
2022-10-23T15:14:40.628Z,87.20
2022-10-23T15:16:43.654Z,87.56
2022-10-23T15:18:46.676Z,87.82
2022-10-23T15:20:53.736Z,86.62
2022-10-23T15:22:56.760Z,86.39
2022-10-23T15:24:59.754Z,87.09
2022-10-23T15:27:03.770Z,87.71
2022-10-23T15:29:06.831Z,87.61
2022-10-23T15:48:28.570Z,89.55
2022-10-23T15:50:31.533Z,90.15
2022-10-23T15:52:34.557Z,91.79
2022-10-23T15:54:39.575Z,92.26
2022-10-23T15:56:42.607Z,91.96
2022-10-23T15:58:45.671Z,92.43
2022-10-23T16:00:48.699Z,92.42
2022-10-23T16:02:52.831Z,92.82
2022-10-23T16:04:57.241Z,93.20
2022-10-23T16:07:00.216Z,92.98
2022-10-23T16:09:03.434Z,94.25
2022-10-23T16:11:14.179Z,93.99
2022-10-23T16:13:17.224Z,94.66
2022-10-23T16:15:25.694Z,95.26
2022-10-23T16:17:28.767Z,94.96
2022-10-23T16:19:31.756Z,95.04
2022-10-23T16:21:37.119Z,95.88
2022-10-23T16:23:40.261Z,94.97
2022-10-23T16:25:43.411Z,95.75
2022-10-23T16:27:47.600Z,96.70
2022-10-23T16:29:50.656Z,95.97
2022-10-23T16:31:54.565Z,96.31
2022-10-23T16:33:58.827Z,96.86
2022-10-23T16:36:04.427Z,98.05
2022-10-23T16:38:08.769Z,97.97
2022-10-23T16:40:12.444Z,98.19
2022-10-23T16:42:34.244Z,96.97
2022-10-23T16:45:07.201Z,97.39
2022-10-23T16:47:10.566Z,97.38
2022-10-23T16:49:14.484Z,98.46
2022-10-23T16:51:19.390Z,98.23
2022-10-23T16:53:26.790Z,98.51
2022-10-23T16:55:29.894Z,99.10
2022-10-23T16:57:32.972Z,97.97
2022-10-23T16:59:36.117Z,97.86
2022-10-23T17:01:39.524Z,98.36
2022-10-23T17:03:47.782Z,99.12
2022-10-23T17:05:50.857Z,98.74
2022-10-23T17:07:53.894Z,98.88
2022-10-23T17:09:58.299Z,99.51
2022-10-23T17:12:01.308Z,98.49
2022-10-23T17:14:05.867Z,98.46
2022-10-23T17:16:11.414Z,98.37
2022-10-23T17:18:14.449Z,98.47
2022-10-23T17:20:17.962Z,98.64
2022-10-23T17:22:21.050Z,99.83
2022-10-23T17:24:24.736Z,98.43
2022-10-23T17:26:29.168Z,98.47
2022-10-23T17:28:34.109Z,98.87
2022-10-23T17:30:38.965Z,99.81
2022-10-23T17:32:42.305Z,99.56
2022-10-23T17:34:46.551Z,99.65
2022-10-23T17:36:51.519Z,99.29
2022-10-23T17:38:54.733Z,100.00
2022-10-23T17:40:57.819Z,99.51
2022-10-23T17:43:03.138Z,99.83
2022-10-23T17:45:06.885Z,100.00
2022-10-23T17:47:09.963Z,100.00
2022-10-23T17:49:13.733Z,100.00
2022-10-23T17:51:18.362Z,100.00
2022-10-23T17:53:21.428Z,100.00
2022-10-23T17:55:24.480Z,100.00
2022-10-23T17:57:27.522Z,100.00
2022-10-23T17:59:32.370Z,99.96
2022-10-23T18:01:35.749Z,100.00
2022-10-23T18:03:39.418Z,100.00
2022-10-23T18:05:42.642Z,100.00
2022-10-23T18:07:45.698Z,100.00
2022-10-23T18:09:48.954Z,100.00
2022-10-23T18:11:52.786Z,100.00
2022-10-23T18:13:56.042Z,100.00
2022-10-23T18:16:03.798Z,100.00
2022-10-23T18:18:07.887Z,100.00
2022-10-23T18:20:12.055Z,100.00
2022-10-23T18:22:15.221Z,94.92
2022-10-23T18:24:19.222Z,94.50
2022-10-23T18:26:23.898Z,92.97
2022-10-23T18:28:27.659Z,96.27
2022-10-23T18:30:30.774Z,97.20
2022-10-23T18:32:35.355Z,97.12
2022-10-23T18:34:38.330Z,98.92
2022-10-23T18:36:41.671Z,98.31
2022-10-23T18:38:44.788Z,98.41
2022-10-23T18:40:55.219Z,99.17
2022-10-23T18:42:58.316Z,100.00
2022-10-23T18:45:01.654Z,98.94
2022-10-23T18:47:04.852Z,100.00
2022-10-23T18:49:09.838Z,98.81
2022-10-23T18:51:18.811Z,99.47
2022-10-23T18:53:21.932Z,100.00
2022-10-23T18:55:25.523Z,99.66
2022-10-23T18:57:28.760Z,100.00
2022-10-23T18:59:31.928Z,100.00
2022-10-23T19:01:35.747Z,100.00
2022-10-23T19:03:39.052Z,100.00
2022-10-23T19:05:44.967Z,100.00
2022-10-23T19:07:49.208Z,100.00
2022-10-23T19:09:52.758Z,99.92
2022-10-23T19:11:55.841Z,100.00
2022-10-23T19:13:58.935Z,99.93
2022-10-23T19:16:02.036Z,98.92
2022-10-23T19:18:06.204Z,99.20
2022-10-23T19:20:15.625Z,98.43
2022-10-23T19:22:20.297Z,99.01
2022-10-23T19:24:25.496Z,97.85
2022-10-23T19:26:28.637Z,97.48
2022-10-23T19:28:37.566Z,97.83
2022-10-23T19:30:41.793Z,97.78
2022-10-23T19:32:46.550Z,97.00
2022-10-23T19:34:49.674Z,97.77
2022-10-23T19:36:54.570Z,96.45
2022-10-23T19:39:01.572Z,96.49
2022-10-23T19:41:04.776Z,96.71
2022-10-23T19:43:08.585Z,96.70
2022-10-23T19:45:13.620Z,96.33
2022-10-23T19:47:16.988Z,96.71
2022-10-23T19:49:20.243Z,95.79
2022-10-23T19:51:23.278Z,95.83
2022-10-23T19:53:26.533Z,94.91
2022-10-23T19:55:30.873Z,95.66
2022-10-23T19:57:34.919Z,94.48
2022-10-23T19:59:37.894Z,93.48
2022-10-23T20:01:43.871Z,94.09
2022-10-23T20:03:49.718Z,94.28
2022-10-23T20:05:52.933Z,94.51
2022-10-23T20:07:56.381Z,94.39
2022-10-23T20:10:00.840Z,94.88
2022-10-23T20:12:05.860Z,95.41
2022-10-23T20:14:09.113Z,95.49
2022-10-23T20:16:17.821Z,95.34
2022-10-23T20:18:20.960Z,94.53
2022-10-23T20:20:24.062Z,93.94
2022-10-23T20:22:27.330Z,93.56
2022-10-23T20:24:30.749Z,93.47
2022-10-23T20:26:34.148Z,93.38
2022-10-23T20:28:38.759Z,93.43
2022-10-23T20:30:42.470Z,94.92
2022-10-23T20:32:46.947Z,94.67
2022-10-23T20:34:50.143Z,95.18
2022-10-23T20:36:53.189Z,94.69
2022-10-23T20:38:56.871Z,93.94
2022-10-23T20:41:03.969Z,94.35
2022-10-23T20:43:06.919Z,94.41
2022-10-23T20:45:11.999Z,94.11
2022-10-23T20:47:15.010Z,93.88
2022-10-23T20:49:18.767Z,93.11
2022-10-23T20:51:24.154Z,91.27
2022-10-23T20:53:27.771Z,91.40
2022-10-23T20:55:30.979Z,90.81
2022-10-23T20:57:34.259Z,89.50
2022-10-23T20:59:37.273Z,88.23
2022-10-23T21:01:43.202Z,87.36
2022-10-23T21:03:50.710Z,86.08
2022-10-23T21:05:53.778Z,85.38
2022-10-23T21:07:57.105Z,86.13
2022-10-23T21:10:01.054Z,83.36
2022-10-23T21:12:07.430Z,82.70
2022-10-23T21:14:10.475Z,83.35
2022-10-23T21:16:14.744Z,82.22
2022-10-23T21:18:41.014Z,82.32
2022-10-23T21:20:43.003Z,80.39
2022-10-23T21:22:46.270Z,81.02
2022-10-23T21:24:52.342Z,79.88
2022-10-23T21:26:55.715Z,78.02
2022-10-23T21:29:13.722Z,77.98
2022-10-23T21:31:23.304Z,77.59
2022-10-23T21:33:28.870Z,78.31
2022-10-23T21:35:32.703Z,78.46
2022-10-23T21:37:36.010Z,78.08
2022-10-23T21:39:42.988Z,76.87
2022-10-23T21:41:46.246Z,78.17
2022-10-23T21:43:49.502Z,76.32
2022-10-23T21:45:55.442Z,75.59
2022-10-23T21:48:01.155Z,75.80
2022-10-23T21:50:08.840Z,76.05
2022-10-23T21:52:13.979Z,75.36
2022-10-23T21:54:19.307Z,75.06
2022-10-23T21:56:28.202Z,74.50
2022-10-23T21:58:31.451Z,73.94
2022-10-23T22:00:37.675Z,73.78
2022-10-23T22:02:40.788Z,74.89
2022-10-23T22:04:43.945Z,74.71
2022-10-23T22:06:49.824Z,74.22
2022-10-23T22:08:56.232Z,74.60
2022-10-23T22:10:59.433Z,74.73
2022-10-23T22:13:02.466Z,74.12
2022-10-23T22:15:06.295Z,74.90
2022-10-23T22:17:09.347Z,74.63
2022-10-23T22:19:14.006Z,74.39
2022-10-23T22:21:20.036Z,74.62
2022-10-23T22:23:24.421Z,74.10
2022-10-23T22:25:27.498Z,74.11
2022-10-23T22:27:30.506Z,74.28
2022-10-23T22:29:33.516Z,73.27
2022-10-23T22:31:37.495Z,72.66
2022-10-23T22:33:40.436Z,73.23
2022-10-23T22:35:43.783Z,73.31
2022-10-23T22:37:46.811Z,74.08
2022-10-23T22:39:52.911Z,72.21
2022-10-23T22:41:55.912Z,72.29
2022-10-23T22:43:59.913Z,73.58
2022-10-23T22:46:03.984Z,72.53
2022-10-23T22:48:08.389Z,74.19
2022-10-23T22:50:11.563Z,74.00
2022-10-23T22:52:14.750Z,74.03
2022-10-23T22:54:17.964Z,72.36
2022-10-23T22:56:25.254Z,73.75
2022-10-23T22:58:28.606Z,73.22
2022-10-23T23:00:31.819Z,73.45
2022-10-23T23:02:34.810Z,73.52
2022-10-23T23:04:38.983Z,72.76
2022-10-23T23:06:42.375Z,73.13
2022-10-23T23:08:46.072Z,72.64
2022-10-23T23:10:53.413Z,73.25
2022-10-23T23:12:57.724Z,74.29
2022-10-23T23:15:00.768Z,73.59
2022-10-23T23:17:04.023Z,74.33
2022-10-23T23:19:07.111Z,74.20
2022-10-23T23:21:10.080Z,75.05
2022-10-23T23:23:14.118Z,74.74
2022-10-23T23:25:17.167Z,75.40
2022-10-23T23:27:20.102Z,74.70
2022-10-23T23:29:24.442Z,76.15
2022-10-23T23:31:27.940Z,74.71
2022-10-23T23:33:30.979Z,75.54
2022-10-23T23:35:34.086Z,77.55
2022-10-23T23:37:37.066Z,78.19
2022-10-23T23:39:40.054Z,76.11
2022-10-23T23:41:43.083Z,77.03
2022-10-23T23:43:46.091Z,77.54
2022-10-23T23:45:50.415Z,77.39
2022-10-23T23:47:53.393Z,78.63
2022-10-23T23:49:56.367Z,78.42
2022-10-23T23:51:59.335Z,78.18
2022-10-23T23:54:02.448Z,79.81
2022-10-23T23:56:05.839Z,80.56
2022-10-23T23:58:08.942Z,81.50
